Meath Environmental Platform

Observations for Trim Market St

Time AQI Temp °C Hum % Pres Pa CO μg/m³ H₂S μg/m³ NO μg/m³ NO₂ μg/m³ O₃ μg/m³ SO₂ μg/m³ PM1 μg/m³ PM2.5 μg/m³ PM10 μg/m³
Saturday 11 July 2026
21:34 1 23.7 62 57,509 0 0 0 10.29 19.94 0 6.41 7.89 10.89
21:33 1 23.8 62 57,521 0 0 0 7.17 12.87 0 5.7 7.4 10.89
21:32 1 23.8 62 57,532 0 0 0 7.38 16.69 0 6.41 8.9 12.25
21:31 1 23.9 62 57,541 0 0 0 9.17 16.26 0 2.85 6.42 8.88
21:30 1 23.9 62 57,552 0 0 0 7.48 17.79 0 7.84 10.4 14.28
21:29 1 23.9 62 57,565 0 0 0 8.39 15.42 0 4.99 7.42 11.58
21:28 1 24 62 57,574 0 0 0 8.48 19.19 0 5.7 6.93 10.23
21:27 1 24 62 57,583 0 0 0 9.48 12.5 0 5.7 8.42 13.61
21:26 1 24.1 62 57,590 0 0 0 6.86 13.97 0 7.13 9.43 13.62
21:25 1 24.1 61 57,596 0 0 0 9.18 8.26 0 7.84 10.93 14.99
21:24 1 24.2 61 57,608 0 0 0 8.57 16.91 0 7.13 10.44 15.67
21:23 1 24.2 61 57,618 0 0 0 12.18 17.48 0 5.7 8.45 11.6
21:22 1 24.2 61 57,630 0 0 0 10.36 14.39 0 6.41 8.94 12.95
21:19 1 24.3 61 57,644 0 0.48 0 12.35 23.56 0 6.41 8.45 12.28
21:17 1 24.4 61 57,670 0 0 0 13.05 12.3 0 5.7 8.47 12.29
21:15 1 24.5 61 57,691 0 0 0 10.24 17.48 0 5.7 8.48 12.3
21:11 1 24.7 60 57,727 0 0 0 9.14 11.13 0 4.99 8 11.63
21:04 1 24.8 60 57,774 0 0 0 11.89 21.68 0 7.13 11.55 17.16
21:03 1 24.9 60 57,777 0 0 0 10.57 23.45 0 7.13 9.05 13.04
21:01 1 24.9 60 57,783 0 0 0 11.08 25.91 0 7.13 9.56 13.04